Time,TemperatureF,DewpointF,PressureIn,WindDirection,WindDirectionDegrees,WindSpeedMPH,WindSpeedGustMPH,Humidity,HourlyPrecipIn,Conditions,Clouds,dailyrainin,SolarRadiationWatts/m^2,SoftwareType,DateUTC
2013-01-03 00:02:00,-1.0,-5.0,-100.00,East,84,2.0,3.0,82,0.00,,,0.00,0.000000,,2013-01-03 07:02:00,
2013-01-03 00:12:00,-1.0,-5.0,-100.00,East,84,2.0,3.0,82,0.00,,,0.00,0.000000,,2013-01-03 07:12:00,
2013-01-03 00:22:00,-3.0,-7.0,-100.00,ENE,69,2.0,3.0,81,0.00,,,0.00,0.000000,,2013-01-03 07:22:00,
2013-01-03 00:43:00,-3.0,-7.0,-100.00,ENE,69,2.0,3.0,81,0.00,,,0.00,0.000000,,2013-01-03 07:43:00,
2013-01-03 00:53:00,-3.0,-7.0,-100.00,ENE,69,2.0,3.0,81,0.00,,,0.00,0.000000,,2013-01-03 07:53:00,
2013-01-03 01:02:00,-3.0,-7.0,-100.00,ENE,69,2.0,3.0,81,0.00,,,0.00,0.000000,,2013-01-03 08:02:00,
2013-01-03 01:12:00,-3.0,-7.0,-100.00,ENE,69,2.0,3.0,81,0.00,,,0.00,0.000000,,2013-01-03 08:12:00,
2013-01-03 01:22:00,-4.0,-7.0,-100.00,SSW,207,0.0,2.0,88,0.00,,,0.00,0.000000,,2013-01-03 08:22:00,
2013-01-03 01:43:00,-4.0,-7.0,-100.00,SSW,207,0.0,2.0,88,0.00,,,0.00,0.000000,,2013-01-03 08:43:00,
2013-01-03 01:53:00,-4.0,-7.0,-100.00,SSW,207,0.0,2.0,88,0.00,,,0.00,0.000000,,2013-01-03 08:53:00,
2013-01-03 02:02:00,-4.0,-7.0,-100.00,SSW,207,0.0,2.0,88,0.00,,,0.00,0.000000,,2013-01-03 09:02:00,
2013-01-03 02:12:00,-4.0,-7.0,-100.00,SSW,207,0.0,2.0,88,0.00,,,0.00,0.000000,,2013-01-03 09:12:00,
2013-01-03 02:22:00,-3.0,-7.0,-100.00,ESE,122,2.0,2.0,83,0.00,,,0.00,0.000000,,2013-01-03 09:22:00,
2013-01-03 02:43:00,-3.0,-7.0,-100.00,ESE,122,2.0,2.0,83,0.00,,,0.00,0.000000,,2013-01-03 09:43:00,
2013-01-03 02:53:00,-3.0,-7.0,-100.00,ESE,122,2.0,2.0,83,0.00,,,0.00,0.000000,,2013-01-03 09:53:00,
2013-01-03 03:02:00,-3.0,-7.0,-100.00,ESE,122,2.0,2.0,83,0.00,,,0.00,0.000000,,2013-01-03 10:02:00,
2013-01-03 03:12:00,-3.0,-7.0,-100.00,ESE,122,2.0,2.0,83,0.00,,,0.00,0.000000,,2013-01-03 10:12:00,
2013-01-03 03:22:00,-6.0,-10.0,-100.00,ENE,69,1.0,2.0,84,0.00,,,0.00,0.000000,,2013-01-03 10:22:00,
2013-01-03 03:43:00,-6.0,-10.0,-100.00,ENE,69,1.0,2.0,84,0.00,,,0.00,0.000000,,2013-01-03 10:43:00,
2013-01-03 03:53:00,-6.0,-10.0,-100.00,ENE,69,1.0,2.0,84,0.00,,,0.00,0.000000,,2013-01-03 10:53:00,
2013-01-03 04:02:00,-6.0,-10.0,-100.00,ENE,69,1.0,2.0,84,0.00,,,0.00,0.000000,,2013-01-03 11:02:00,
2013-01-03 04:12:00,-6.0,-10.0,-100.00,ENE,69,1.0,2.0,84,0.00,,,0.00,0.000000,,2013-01-03 11:12:00,
2013-01-03 04:22:00,-5.0,-8.0,-100.00,East,84,1.0,2.0,87,0.00,,,0.00,0.000000,,2013-01-03 11:22:00,
2013-01-03 04:43:00,-5.0,-8.0,-100.00,East,84,1.0,2.0,87,0.00,,,0.00,0.000000,,2013-01-03 11:43:00,
2013-01-03 04:53:00,-5.0,-8.0,-100.00,East,84,1.0,2.0,87,0.00,,,0.00,0.000000,,2013-01-03 11:53:00,
2013-01-03 05:03:00,-5.0,-8.0,-100.00,East,84,1.0,2.0,87,0.00,,,0.00,0.000000,,2013-01-03 12:03:00,
2013-01-03 05:12:00,-5.0,-8.0,-100.00,East,84,1.0,2.0,87,0.00,,,0.00,0.000000,,2013-01-03 12:12:00,
2013-01-03 05:22:00,-6.0,-10.0,-100.00,SW,230,1.0,3.0,82,0.00,,,0.00,0.000000,,2013-01-03 12:22:00,
2013-01-03 05:43:00,-6.0,-10.0,-100.00,SW,230,1.0,3.0,82,0.00,,,0.00,0.000000,,2013-01-03 12:43:00,
2013-01-03 05:53:00,-6.0,-10.0,-100.00,SW,230,1.0,3.0,82,0.00,,,0.00,0.000000,,2013-01-03 12:53:00,
2013-01-03 06:02:00,-6.0,-10.0,-100.00,SW,230,1.0,3.0,82,0.00,,,0.00,0.000000,,2013-01-03 13:02:00,
2013-01-03 06:12:00,-6.0,-10.0,-100.00,SW,230,1.0,3.0,82,0.00,,,0.00,0.000000,,2013-01-03 13:12:00,
2013-01-03 06:22:00,-9.0,-12.0,-100.00,NW,316,0.0,2.0,84,0.00,,,0.00,0.000000,,2013-01-03 13:22:00,
2013-01-03 06:43:00,-9.0,-12.0,-100.00,NW,316,0.0,2.0,84,0.00,,,0.00,0.000000,,2013-01-03 13:43:00,
2013-01-03 06:53:00,-9.0,-12.0,-100.00,NW,316,0.0,2.0,84,0.00,,,0.00,0.000000,,2013-01-03 13:53:00,
2013-01-03 07:03:00,-9.0,-12.0,-100.00,NW,316,0.0,2.0,84,0.00,,,0.00,0.000000,,2013-01-03 14:03:00,
2013-01-03 07:12:00,-9.0,-12.0,-100.00,NW,316,0.0,2.0,84,0.00,,,0.00,0.000000,,2013-01-03 14:12:00,
2013-01-03 07:22:00,-9.0,-12.0,-100.00,WNW,289,0.0,2.0,85,0.00,,,0.00,0.000000,,2013-01-03 14:22:00,
2013-01-03 07:43:00,-9.0,-12.0,-100.00,WNW,289,0.0,2.0,85,0.00,,,0.00,0.000000,,2013-01-03 14:43:00,
2013-01-03 07:53:00,-9.0,-12.0,-100.00,WNW,289,0.0,2.0,85,0.00,,,0.00,0.000000,,2013-01-03 14:53:00,
2013-01-03 08:03:00,-9.0,-12.0,-100.00,WNW,289,0.0,2.0,85,0.00,,,0.00,0.000000,,2013-01-03 15:03:00,
2013-01-03 08:12:00,-9.0,-12.0,-100.00,WNW,289,0.0,2.0,85,0.00,,,0.00,0.000000,,2013-01-03 15:12:00,
2013-01-03 08:22:00,-5.0,-11.0,-100.00,ESE,112,1.0,2.0,76,0.00,,,0.00,25.000000,,2013-01-03 15:22:00,
2013-01-03 08:43:00,-5.0,-11.0,-100.00,ESE,112,1.0,2.0,76,0.00,,,0.00,25.000000,,2013-01-03 15:43:00,
2013-01-03 08:53:00,-5.0,-11.0,-100.00,ESE,112,1.0,2.0,76,0.00,,,0.00,25.000000,,2013-01-03 15:53:00,
2013-01-03 09:03:00,-5.0,-11.0,-100.00,ESE,112,1.0,2.0,76,0.00,,,0.00,25.000000,,2013-01-03 16:03:00,
2013-01-03 09:12:00,-5.0,-11.0,-100.00,ESE,112,1.0,2.0,76,0.00,,,0.00,25.000000,,2013-01-03 16:12:00,
2013-01-03 09:22:00,3.0,-8.0,-100.00,NW,318,1.0,2.0,59,0.00,,,0.00,80.000000,,2013-01-03 16:22:00,
2013-01-03 09:43:00,3.0,-8.0,-100.00,NW,318,1.0,2.0,59,0.00,,,0.00,80.000000,,2013-01-03 16:43:00,
2013-01-03 09:53:00,3.0,-8.0,-100.00,NW,318,1.0,2.0,59,0.00,,,0.00,80.000000,,2013-01-03 16:53:00,
2013-01-03 10:03:00,3.0,-8.0,-100.00,NW,318,1.0,2.0,59,0.00,,,0.00,80.000000,,2013-01-03 17:03:00,
2013-01-03 10:12:00,3.0,-8.0,-100.00,NW,318,1.0,2.0,59,0.00,,,0.00,80.000000,,2013-01-03 17:12:00,
2013-01-03 10:22:00,1.0,-9.0,-100.00,East,96,2.0,2.0,63,0.00,,,0.00,136.000000,,2013-01-03 17:22:00,
2013-01-03 10:43:00,1.0,-9.0,-100.00,East,96,2.0,2.0,63,0.00,,,0.00,136.000000,,2013-01-03 17:43:00,
2013-01-03 10:53:00,1.0,-9.0,-100.00,East,96,2.0,2.0,63,0.00,,,0.00,136.000000,,2013-01-03 17:53:00,
2013-01-03 11:03:00,1.0,-9.0,-100.00,East,96,2.0,2.0,63,0.00,,,0.00,136.000000,,2013-01-03 18:03:00,
2013-01-03 11:13:00,1.0,-9.0,-100.00,East,96,2.0,2.0,63,0.00,,,0.00,136.000000,,2013-01-03 18:13:00,
2013-01-03 11:43:00,12.0,-5.0,-100.00,NW,316,1.0,2.0,46,0.00,,,0.00,197.000000,,2013-01-03 18:43:00,
2013-01-03 11:53:00,12.0,-5.0,-100.00,NW,316,1.0,2.0,46,0.00,,,0.00,197.000000,,2013-01-03 18:53:00,
2013-01-03 12:03:00,12.0,-5.0,-100.00,NW,316,1.0,2.0,46,0.00,,,0.00,197.000000,,2013-01-03 19:03:00,
2013-01-03 12:12:00,12.0,-5.0,-100.00,NW,316,1.0,2.0,46,0.00,,,0.00,197.000000,,2013-01-03 19:12:00,
2013-01-03 12:22:00,10.0,-6.0,-100.00,West,266,2.0,2.0,48,0.00,,,0.00,242.000000,,2013-01-03 19:22:00,
2013-01-03 12:56:00,10.0,-6.0,-100.00,West,266,2.0,2.0,48,0.00,,,0.00,242.000000,,2013-01-03 19:56:00,
2013-01-03 13:03:00,10.0,-6.0,-100.00,West,266,2.0,2.0,48,0.00,,,0.00,242.000000,,2013-01-03 20:03:00,
2013-01-03 13:12:00,10.0,-6.0,-100.00,West,266,2.0,2.0,48,0.00,,,0.00,242.000000,,2013-01-03 20:12:00,
2013-01-03 13:22:00,10.0,-5.0,-100.00,West,281,2.0,3.0,49,0.00,,,0.00,261.000000,,2013-01-03 20:22:00,
2013-01-03 13:43:00,10.0,-5.0,-100.00,West,281,2.0,3.0,49,0.00,,,0.00,261.000000,,2013-01-03 20:43:00,
2013-01-03 13:53:00,10.0,-5.0,-100.00,West,281,2.0,3.0,49,0.00,,,0.00,261.000000,,2013-01-03 20:53:00,
2013-01-03 14:02:00,10.0,-5.0,-100.00,West,281,2.0,3.0,49,0.00,,,0.00,261.000000,,2013-01-03 21:02:00,
2013-01-03 14:12:00,10.0,-5.0,-100.00,West,281,2.0,3.0,49,0.00,,,0.00,261.000000,,2013-01-03 21:12:00,
2013-01-03 14:22:00,12.0,-3.0,-100.00,West,267,2.0,2.0,49,0.00,,,0.00,251.000000,,2013-01-03 21:22:00,
2013-01-03 14:53:00,12.0,-3.0,-100.00,West,267,2.0,2.0,49,0.00,,,0.00,251.000000,,2013-01-03 21:53:00,
2013-01-03 15:03:00,12.0,-3.0,-100.00,West,267,2.0,2.0,49,0.00,,,0.00,251.000000,,2013-01-03 22:03:00,
2013-01-03 15:12:00,12.0,-3.0,-100.00,West,267,2.0,2.0,49,0.00,,,0.00,251.000000,,2013-01-03 22:12:00,
2013-01-03 15:22:00,11.0,-4.0,-100.00,West,275,2.0,2.0,51,0.00,,,0.00,217.000000,,2013-01-03 22:22:00,
2013-01-03 15:43:00,11.0,-4.0,-100.00,West,275,2.0,2.0,51,0.00,,,0.00,217.000000,,2013-01-03 22:43:00,
2013-01-03 15:53:00,11.0,-4.0,-100.00,West,275,2.0,2.0,51,0.00,,,0.00,217.000000,,2013-01-03 22:53:00,
2013-01-03 16:03:00,11.0,-4.0,-100.00,West,275,2.0,2.0,51,0.00,,,0.00,217.000000,,2013-01-03 23:03:00,
2013-01-03 16:12:00,11.0,-4.0,-100.00,West,275,2.0,2.0,51,0.00,,,0.00,217.000000,,2013-01-03 23:12:00,
2013-01-03 16:22:00,14.0,-3.0,-100.00,WNW,299,0.0,2.0,46,0.00,,,0.00,155.000000,,2013-01-03 23:22:00,
2013-01-03 16:43:00,14.0,-3.0,-100.00,WNW,299,0.0,2.0,46,0.00,,,0.00,155.000000,,2013-01-03 23:43:00,
2013-01-03 16:53:00,14.0,-3.0,-100.00,WNW,299,0.0,2.0,46,0.00,,,0.00,155.000000,,2013-01-03 23:53:00,
2013-01-03 17:03:00,14.0,-3.0,-100.00,WNW,299,0.0,2.0,46,0.00,,,0.00,155.000000,,2013-01-04 00:03:00,
2013-01-03 17:12:00,14.0,-3.0,-100.00,WNW,299,0.0,2.0,46,0.00,,,0.00,155.000000,,2013-01-04 00:12:00,
2013-01-03 17:22:00,2.0,-5.0,-100.00,ENE,65,1.0,2.0,73,0.00,,,0.00,12.000000,,2013-01-04 00:22:00,
2013-01-03 17:42:00,2.0,-5.0,-100.00,ENE,65,1.0,2.0,73,0.00,,,0.00,12.000000,,2013-01-04 00:42:00,
2013-01-03 17:53:00,2.0,-5.0,-100.00,ENE,65,1.0,2.0,73,0.00,,,0.00,12.000000,,2013-01-04 00:53:00,
2013-01-03 18:02:00,2.0,-5.0,-100.00,ENE,65,1.0,2.0,73,0.00,,,0.00,12.000000,,2013-01-04 01:02:00,
2013-01-03 18:12:00,2.0,-5.0,-100.00,ENE,65,1.0,2.0,73,0.00,,,0.00,12.000000,,2013-01-04 01:12:00,
2013-01-03 18:22:00,1.0,-5.0,-100.00,WNW,295,1.0,2.0,74,0.00,,,0.00,0.000000,,2013-01-04 01:22:00,
2013-01-03 18:42:00,1.0,-5.0,-100.00,WNW,295,1.0,2.0,74,0.00,,,0.00,0.000000,,2013-01-04 01:42:00,
2013-01-03 18:52:00,1.0,-5.0,-100.00,WNW,295,1.0,2.0,74,0.00,,,0.00,0.000000,,2013-01-04 01:52:00,
2013-01-03 19:02:00,1.0,-5.0,-100.00,WNW,295,1.0,2.0,74,0.00,,,0.00,0.000000,,2013-01-04 02:02:00,
2013-01-03 19:12:00,1.0,-5.0,-100.00,WNW,295,1.0,2.0,74,0.00,,,0.00,0.000000,,2013-01-04 02:12:00,
2013-01-03 19:22:00,-1.0,-5.0,-100.00,WNW,284,1.0,2.0,83,0.00,,,0.00,0.000000,,2013-01-04 02:22:00,
2013-01-03 19:42:00,-1.0,-5.0,-100.00,WNW,284,1.0,2.0,83,0.00,,,0.00,0.000000,,2013-01-04 02:42:00,
2013-01-03 19:53:00,-1.0,-5.0,-100.00,WNW,284,1.0,2.0,83,0.00,,,0.00,0.000000,,2013-01-04 02:53:00,
2013-01-03 20:02:00,-1.0,-5.0,-100.00,WNW,284,1.0,2.0,83,0.00,,,0.00,0.000000,,2013-01-04 03:02:00,
2013-01-03 20:12:00,-1.0,-5.0,-100.00,WNW,284,1.0,2.0,83,0.00,,,0.00,0.000000,,2013-01-04 03:12:00,
2013-01-03 20:22:00,-1.0,-5.0,-100.00,SE,137,1.0,2.0,84,0.00,,,0.00,0.000000,,2013-01-04 03:22:00,
2013-01-03 20:43:00,-1.0,-5.0,-100.00,SE,137,1.0,2.0,84,0.00,,,0.00,0.000000,,2013-01-04 03:43:00,
2013-01-03 20:53:00,-1.0,-5.0,-100.00,SE,137,1.0,2.0,84,0.00,,,0.00,0.000000,,2013-01-04 03:53:00,
2013-01-03 21:02:00,-1.0,-5.0,-100.00,SE,137,1.0,2.0,84,0.00,,,0.00,0.000000,,2013-01-04 04:02:00,
2013-01-03 21:12:00,-1.0,-5.0,-100.00,SE,137,1.0,2.0,84,0.00,,,0.00,0.000000,,2013-01-04 04:12:00,
2013-01-03 21:22:00,0.0,-4.0,-100.00,North,9,0.0,2.0,83,0.00,,,0.00,0.000000,,2013-01-04 04:22:00,
2013-01-03 21:42:00,0.0,-4.0,-100.00,North,9,0.0,2.0,83,0.00,,,0.00,0.000000,,2013-01-04 04:42:00,
2013-01-03 21:52:00,0.0,-4.0,-100.00,North,9,0.0,2.0,83,0.00,,,0.00,0.000000,,2013-01-04 04:52:00,
2013-01-03 22:03:00,0.0,-4.0,-100.00,North,9,0.0,2.0,83,0.00,,,0.00,0.000000,,2013-01-04 05:03:00,
2013-01-03 22:12:00,0.0,-4.0,-100.00,North,9,0.0,2.0,83,0.00,,,0.00,0.000000,,2013-01-04 05:12:00,
2013-01-03 22:22:00,-1.0,-6.0,-100.00,East,97,1.0,2.0,79,0.00,,,0.00,0.000000,,2013-01-04 05:22:00,
2013-01-03 22:42:00,-1.0,-6.0,-100.00,East,97,1.0,2.0,79,0.00,,,0.00,0.000000,,2013-01-04 05:42:00,
2013-01-03 22:53:00,-1.0,-6.0,-100.00,East,97,1.0,2.0,79,0.00,,,0.00,0.000000,,2013-01-04 05:53:00,
2013-01-03 23:02:00,-1.0,-6.0,-100.00,East,97,1.0,2.0,79,0.00,,,0.00,0.000000,,2013-01-04 06:02:00,
2013-01-03 23:12:00,-1.0,-6.0,-100.00,East,97,1.0,2.0,79,0.00,,,0.00,0.000000,,2013-01-04 06:12:00,
2013-01-03 23:22:00,-1.0,-5.0,-100.00,West,280,1.0,2.0,81,0.00,,,0.00,0.000000,,2013-01-04 06:22:00,
2013-01-03 23:43:00,-1.0,-5.0,-100.00,West,280,1.0,2.0,81,0.00,,,0.00,0.000000,,2013-01-04 06:43:00,
2013-01-03 23:52:00,-1.0,-5.0,-100.00,West,280,1.0,2.0,81,0.00,,,0.00,0.000000,,2013-01-04 06:52:00,